Map

Track Data

SID SEASON NUMBER BASIN SUBBASIN NAME ISO_TIME NATURE LAT LON WMO_WIND WMO_PRES WMO_AGENCY TRACK_TYPE DIST2LAND LANDFALL IFLAG USA_AGENCY USA_ATCF_ID USA_LAT USA_LON USA_RECORD USA_STATUS USA_WIND USA_PRES USA_SSHS USA_R34_NE USA_R34_SE USA_R34_SW USA_R34_NW USA_R50_NE USA_R50_SE USA_R50_SW USA_R50_NW USA_R64_NE USA_R64_SE USA_R64_SW USA_R64_NW USA_POCI USA_ROCI USA_RMW USA_EYE TOKYO_LAT TOKYO_LON TOKYO_GRADE TOKYO_WIND TOKYO_PRES TOKYO_R50_DIR TOKYO_R50_LONG TOKYO_R50_SHORT TOKYO_R30_DIR TOKYO_R30_LONG TOKYO_R30_SHORT TOKYO_LAND CMA_LAT CMA_LON CMA_CAT CMA_WIND CMA_PRES HKO_LAT HKO_LON HKO_CAT HKO_WIND HKO_PRES NEWDELHI_LAT NEWDELHI_LON NEWDELHI_GRADE NEWDELHI_WIND NEWDELHI_PRES NEWDELHI_CI NEWDELHI_DP NEWDELHI_POCI REUNION_LAT REUNION_LON REUNION_TYPE REUNION_WIND REUNION_PRES REUNION_TNUM REUNION_CI REUNION_RMW REUNION_R34_NE REUNION_R34_SE REUNION_R34_SW REUNION_R34_NW REUNION_R50_NE REUNION_R50_SE REUNION_R50_SW REUNION_R50_NW REUNION_R64_NE REUNION_R64_SE REUNION_R64_SW REUNION_R64_NW BOM_LAT BOM_LON BOM_TYPE BOM_WIND BOM_PRES BOM_TNUM BOM_CI BOM_RMW BOM_R34_NE BOM_R34_SE BOM_R34_SW BOM_R34_NW BOM_R50_NE BOM_R50_SE BOM_R50_SW BOM_R50_NW BOM_R64_NE BOM_R64_SE BOM_R64_SW BOM_R64_NW BOM_ROCI BOM_POCI BOM_EYE BOM_POS_METHOD BOM_PRES_METHOD NADI_LAT NADI_LON NADI_CAT NADI_WIND NADI_PRES WELLINGTON_LAT WELLINGTON_LON WELLINGTON_WIND WELLINGTON_PRES DS824_LAT DS824_LON DS824_STAGE DS824_WIND DS824_PRES TD9636_LAT TD9636_LON TD9636_STAGE TD9636_WIND TD9636_PRES TD9635_LAT TD9635_LON TD9635_WIND TD9635_PRES TD9635_ROCI NEUMANN_LAT NEUMANN_LON NEUMANN_CLASS NEUMANN_WIND NEUMANN_PRES MLC_LAT MLC_LON MLC_CLASS MLC_WIND MLC_PRES USA_GUST BOM_GUST BOM_GUST_PER REUNION_GUST REUNION_GUST_PER USA_SEAHGT USA_SEARAD_NE USA_SEARAD_SE USA_SEARAD_SW USA_SEARAD_NW STORM_SPEED STORM_DIR
1913239N13339 1913 40 NA NA NOT_NAMED 1913-08-26 12:00:00 TS 12.5000 -21.0000 30 hurdat_atl main 451 451 O_____________ hurdat_atl AL031913 12.5000 -21.0000 TD 30 -1 12 275
1913239N13339 1913 40 NA NA NOT_NAMED 1913-08-26 15:00:00 TS 12.5477 -21.5875 main 507 501 P_____________ AL031913 12.5477 -21.5875 TD 30 -1 12 275
1913239N13339 1913 40 NA NA NOT_NAMED 1913-08-26 18:00:00 TS 12.6000 -22.2000 30 hurdat_atl main 559 559 O_____________ hurdat_atl AL031913 12.6000 -22.2000 TD 30 -1 12 275
1913239N13339 1913 40 NA NA NOT_NAMED 1913-08-26 21:00:00 TS 12.6574 -22.8500 main 615 615 P_____________ AL031913 12.6574 -22.8500 TD 32 -1 13 275
1913239N13339 1913 40 NA NA NOT_NAMED 1913-08-27 00:00:00 TS 12.7000 -23.5000 35 hurdat_atl main 686 686 O_____________ hurdat_atl AL031913 12.7000 -23.5000 TS 35 0 12 272
1913239N13339 1913 40 NA NA NOT_NAMED 1913-08-27 03:00:00 TS 12.7073 -24.1001 main 747 747 P_____________ AL031913 12.7073 -24.1001 TS 35 0 12 270
1913239N13339 1913 40 NA NA NOT_NAMED 1913-08-27 06:00:00 TS 12.7000 -24.7000 35 hurdat_atl main 809 809 O_____________ hurdat_atl AL031913 12.7000 -24.7000 TS 35 0 12 270
1913239N13339 1913 40 NA NA NOT_NAMED 1913-08-27 09:00:00 TS 12.6999 -25.3425 main 872 872 P_____________ AL031913 12.6999 -25.3425 TS 37 0 13 270
1913239N13339 1913 40 NA NA NOT_NAMED 1913-08-27 12:00:00 TS 12.7000 -26.0000 40 hurdat_atl main 945 945 O_____________ hurdat_atl AL031913 12.7000 -26.0000 TS 40 0 13 270
1913239N13339 1913 40 NA NA NOT_NAMED 1913-08-27 15:00:00 TS 12.6999 -26.6575 main 1019 1019 P_____________ AL031913 12.6999 -26.6575 TS 42 0 13 270
1913239N13339 1913 40 NA NA NOT_NAMED 1913-08-27 18:00:00 TS 12.7000 -27.3000 45 hurdat_atl main 1082 1082 O_____________ hurdat_atl AL031913 12.7000 -27.3000 TS 45 0 12 270
1913239N13339 1913 40 NA NA NOT_NAMED 1913-08-27 21:00:00 TS 12.6998 -27.9000 main 1146 1146 P_____________ AL031913 12.6998 -27.9000 TS 45 0 12 270
1913239N13339 1913 40 NA NA NOT_NAMED 1913-08-28 00:00:00 TS 12.7000 -28.5000 45 hurdat_atl main 1209 1209 O_____________ hurdat_atl AL031913 12.7000 -28.5000 TS 45 0 12 270
1913239N13339 1913 40 NA NA NOT_NAMED 1913-08-28 03:00:00 TS 12.6999 -29.1500 main 1273 1273 P_____________ AL031913 12.6999 -29.1500 TS 45 0 13 270
1913239N13339 1913 40 NA NA NOT_NAMED 1913-08-28 06:00:00 TS 12.7000 -29.8000 45 hurdat_atl main 1348 1348 O_____________ hurdat_atl AL031913 12.7000 -29.8000 TS 45 0 12 270
1913239N13339 1913 40 NA NA NOT_NAMED 1913-08-28 09:00:00 TS 12.6998 -30.4075 main 1411 1411 P_____________ AL031913 12.6998 -30.4075 TS 45 0 12 270
1913239N13339 1913 40 NA NA NOT_NAMED 1913-08-28 12:00:00 TS 12.7000 -31.0000 45 hurdat_atl main 1476 1476 O_____________ hurdat_atl AL031913 12.7000 -31.0000 TS 45 0 12 270
1913239N13339 1913 40 NA NA NOT_NAMED 1913-08-28 15:00:00 TS 12.6923 -31.5926 main 1540 1540 P_____________ AL031913 12.6923 -31.5926 TS 45 0 12 270
1913239N13339 1913 40 NA NA NOT_NAMED 1913-08-28 18:00:00 TS 12.7000 -32.2000 45 hurdat_atl main 1604 1604 O_____________ hurdat_atl AL031913 12.7000 -32.2000 TS 45 0 12 272
1913239N13339 1913 40 NA NA NOT_NAMED 1913-08-28 21:00:00 TS 12.7424 -32.8500 main 1668 1668 P_____________ AL031913 12.7424 -32.8500 TS 45 0 13 275
1913239N13339 1913 40 NA NA NOT_NAMED 1913-08-29 00:00:00 TS 12.8000 -33.5000 45 hurdat_atl main 1741 1741 O_____________ hurdat_atl AL031913 12.8000 -33.5000 TS 45 0 12 275
1913239N13339 1913 40 NA NA NOT_NAMED 1913-08-29 03:00:00 TS 12.8498 -34.1000 main 1806 1804 P_____________ AL031913 12.8498 -34.1000 TS 45 0 12 275
1913239N13339 1913 40 NA NA NOT_NAMED 1913-08-29 06:00:00 TS 12.9000 -34.7000 45 hurdat_atl main 1857 1841 O_____________ hurdat_atl AL031913 12.9000 -34.7000 TS 45 0 12 275
1913239N13339 1913 40 NA NA NOT_NAMED 1913-08-29 09:00:00 TS 12.9574 -35.3425 main 1849 1830 P_____________ AL031913 12.9574 -35.3425 TS 45 0 13 275
1913239N13339 1913 40 NA NA NOT_NAMED 1913-08-29 12:00:00 TS 13.0000 -36.0000 45 hurdat_atl main 1830 1816 O_____________ hurdat_atl AL031913 13.0000 -36.0000 TS 45 0 13 272
1913239N13339 1913 40 NA NA NOT_NAMED 1913-08-29 15:00:00 TS 13.0074 -36.6576 main 1814 1802 P_____________ AL031913 13.0074 -36.6576 TS 45 0 13 270
1913239N13339 1913 40 NA NA NOT_NAMED 1913-08-29 18:00:00 TS 13.0000 -37.3000 45 hurdat_atl main 1802 1766 O_____________ hurdat_atl AL031913 13.0000 -37.3000 TS 45 0 12 269
1913239N13339 1913 40 NA NA NOT_NAMED 1913-08-29 21:00:00 TS 12.9923 -37.9001 main 1766 1711 P_____________ AL031913 12.9923 -37.9001 TS 45 0 12 270
1913239N13339 1913 40 NA NA NOT_NAMED 1913-08-30 00:00:00 TS 13.0000 -38.5000 45 hurdat_atl main 1711 1657 O_____________ hurdat_atl AL031913 13.0000 -38.5000 TS 45 0 12 272
1913239N13339 1913 40 NA NA NOT_NAMED 1913-08-30 03:00:00 TS 13.0424 -39.1500 main 1657 1602 P_____________ AL031913 13.0424 -39.1500 TS 45 0 13 275
1913239N13339 1913 40 NA NA NOT_NAMED 1913-08-30 06:00:00 TS 13.1000 -39.8000 45 hurdat_atl main 1602 1558 O_____________ hurdat_atl AL031913 13.1000 -39.8000 TS 45 0 12 275
1913239N13339 1913 40 NA NA NOT_NAMED 1913-08-30 09:00:00 TS 13.1573 -40.4075 main 1558 1508 P_____________ AL031913 13.1573 -40.4075 TS 45 0 12 275
1913239N13339 1913 40 NA NA NOT_NAMED 1913-08-30 12:00:00 TS 13.2000 -41.0000 45 hurdat_atl main 1508 1459 O_____________ hurdat_atl AL031913 13.2000 -41.0000 TS 45 0 12 272
1913239N13339 1913 40 NA NA NOT_NAMED 1913-08-30 15:00:00 TS 13.1998 -41.5926 main 1459 1411 P_____________ AL031913 13.1998 -41.5926 TS 45 0 12 270
1913239N13339 1913 40 NA NA NOT_NAMED 1913-08-30 18:00:00 TS 13.2000 -42.2000 45 hurdat_atl main 1411 1366 O_____________ hurdat_atl AL031913 13.2000 -42.2000 TS 45 0 12 272
1913239N13339 1913 40 NA NA NOT_NAMED 1913-08-30 21:00:00 TS 13.2424 -42.8500 main 1366 1323 P_____________ AL031913 13.2424 -42.8500 TS 45 0 13 275
1913239N13339 1913 40 NA NA NOT_NAMED 1913-08-31 00:00:00 TS 13.3000 -43.5000 45 hurdat_atl main 1323 1281 O_____________ hurdat_atl AL031913 13.3000 -43.5000 TS 45 0 12 275
1913239N13339 1913 40 NA NA NOT_NAMED 1913-08-31 03:00:00 TS 13.3498 -44.1000 main 1281 1250 P_____________ AL031913 13.3498 -44.1000 TS 45 0 12 275
1913239N13339 1913 40 NA NA NOT_NAMED 1913-08-31 06:00:00 TS 13.4000 -44.7000 45 hurdat_atl main 1250 1213 O_____________ hurdat_atl AL031913 13.4000 -44.7000 TS 45 0 12 275
1913239N13339 1913 40 NA NA NOT_NAMED 1913-08-31 09:00:00 TS 13.4499 -45.3500 main 1207 1178 P_____________ AL031913 13.4499 -45.3500 TS 45 0 13 275
1913239N13339 1913 40 NA NA NOT_NAMED 1913-08-31 12:00:00 TS 13.5000 -46.0000 45 hurdat_atl main 1178 1139 O_____________ hurdat_atl AL031913 13.5000 -46.0000 TS 45 0 12 275
1913239N13339 1913 40 NA NA NOT_NAMED 1913-08-31 15:00:00 TS 13.5499 -46.6150 main 1139 1111 P_____________ AL031913 13.5499 -46.6150 TS 45 0 12 275
1913239N13339 1913 40 NA NA NOT_NAMED 1913-08-31 18:00:00 TS 13.6000 -47.2000 45 hurdat_atl main 1111 1083 O_____________ hurdat_atl AL031913 13.6000 -47.2000 TS 45 0 11 275
1913239N13339 1913 40 NA NA NOT_NAMED 1913-08-31 21:00:00 TS 13.6498 -47.7575 main 1078 1062 P_____________ AL031913 13.6498 -47.7575 TS 45 0 11 275
1913239N13339 1913 40 NA NA NOT_NAMED 1913-09-01 00:00:00 TS 13.7000 -48.3000 45 hurdat_atl main 1062 1038 O_____________ hurdat_atl AL031913 13.7000 -48.3000 TS 45 0 11 275
1913239N13339 1913 40 NA NA NOT_NAMED 1913-09-01 03:00:00 TS 13.7424 -48.8501 main 1033 1022 P_____________ AL031913 13.7424 -48.8501 TS 45 0 11 275
1913239N13339 1913 40 NA NA NOT_NAMED 1913-09-01 06:00:00 TS 13.8000 -49.4000 45 hurdat_atl main 1022 1010 O_____________ hurdat_atl AL031913 13.8000 -49.4000 TS 45 0 11 278
1913239N13339 1913 40 NA NA NOT_NAMED 1913-09-01 09:00:00 TS 13.8924 -49.9500 main 1012 993 P_____________ AL031913 13.8924 -49.9500 TS 45 0 11 281
1913239N13339 1913 40 NA NA NOT_NAMED 1913-09-01 12:00:00 TS 14.0000 -50.5000 45 hurdat_atl main 993 983 O_____________ hurdat_atl AL031913 14.0000 -50.5000 TS 45 0 11 281
1913239N13339 1913 40 NA NA NOT_NAMED 1913-09-01 15:00:00 TS 14.0999 -51.0500 main 979 971 P_____________ AL031913 14.0999 -51.0500 TS 45 0 11 281
1913239N13339 1913 40 NA NA NOT_NAMED 1913-09-01 18:00:00 TS 14.2000 -51.6000 45 hurdat_atl main 972 963 O_____________ hurdat_atl AL031913 14.2000 -51.6000 TS 45 0 11 280
1913239N13339 1913 40 NA NA NOT_NAMED 1913-09-01 21:00:00 TS 14.2924 -52.1501 main 965 959 P_____________ AL031913 14.2924 -52.1501 TS 45 0 11 281
1913239N13339 1913 40 NA NA NOT_NAMED 1913-09-02 00:00:00 TS 14.4000 -52.7000 45 hurdat_atl main 966 947 O_____________ hurdat_atl AL031913 14.4000 -52.7000 TS 45 0 11 283
1913239N13339 1913 40 NA NA NOT_NAMED 1913-09-02 03:00:00 TS 14.5423 -53.2425 main 947 900 P_____________ AL031913 14.5423 -53.2425 TS 45 0 11 286
1913239N13339 1913 40 NA NA NOT_NAMED 1913-09-02 06:00:00 TS 14.7000 -53.8000 45 hurdat_atl main 900 850 O_____________ hurdat_atl AL031913 14.7000 -53.8000 TS 45 0 12 285
1913239N13339 1913 40 NA NA NOT_NAMED 1913-09-02 09:00:00 TS 14.8349 -54.3927 main 850 809 P_____________ AL031913 14.8349 -54.3927 TS 45 0 12 285
1913239N13339 1913 40 NA NA NOT_NAMED 1913-09-02 12:00:00 TS 15.0000 -55.0000 45 hurdat_atl main 809 772 O_____________ hurdat_atl AL031913 15.0000 -55.0000 TS 45 0 12 289
1913239N13339 1913 40 NA NA NOT_NAMED 1913-09-02 15:00:00 TS 15.2348 -55.6000 main 772 747 P_____________ AL031913 15.2348 -55.6000 TS 45 0 13 293
1913239N13339 1913 40 NA NA NOT_NAMED 1913-09-02 18:00:00 TS 15.5000 -56.2000 45 hurdat_atl main 747 721 O_____________ hurdat_atl AL031913 15.5000 -56.2000 TS 45 0 13 294
1913239N13339 1913 40 NA NA NOT_NAMED 1913-09-02 21:00:00 TS 15.7500 -56.8151 main 721 706 P_____________ AL031913 15.7500 -56.8151 TS 45 0 13 293
1913239N13339 1913 40 NA NA NOT_NAMED 1913-09-03 00:00:00 TS 16.0000 -57.4000 45 hurdat_atl main 709 701 O_____________ hurdat_atl AL031913 16.0000 -57.4000 TS 45 0 12 296
1913239N13339 1913 40 NA NA NOT_NAMED 1913-09-03 03:00:00 TS 16.2497 -57.9002 main 701 701 P_____________ AL031913 16.2497 -57.9002 TS 45 0 11 298
1913239N13339 1913 40 NA NA NOT_NAMED 1913-09-03 06:00:00 TS 16.5000 -58.4000 45 hurdat_atl main 707 702 O_____________ hurdat_atl AL031913 16.5000 -58.4000 TS 45 0 12 294
1913239N13339 1913 40 NA NA NOT_NAMED 1913-09-03 09:00:00 TS 16.7353 -59.0300 main 705 650 P_____________ AL031913 16.7353 -59.0300 TS 45 0 13 294
1913239N13339 1913 40 NA NA NOT_NAMED 1913-09-03 12:00:00 TS 17.0000 -59.6000 45 hurdat_atl main 650 612 O_____________ hurdat_atl AL031913 17.0000 -59.6000 TS 45 0 11 304
1913239N13339 1913 40 NA NA NOT_NAMED 1913-09-03 15:00:00 TS 17.3347 -59.9527 main 601 574 P_____________ AL031913 17.3347 -59.9527 TS 45 0 9 321
1913239N13339 1913 40 NA NA NOT_NAMED 1913-09-03 18:00:00 TS 17.7000 -60.2000 45 hurdat_atl main 574 539 O_____________ hurdat_atl AL031913 17.7000 -60.2000 TS 45 0 9 326
1913239N13339 1913 40 NA NA NOT_NAMED 1913-09-03 21:00:00 TS 18.0500 -60.4651 main 539 517 P_____________ AL031913 18.0500 -60.4651 TS 45 0 9 326
1913239N13339 1913 40 NA NA NOT_NAMED 1913-09-04 00:00:00 TS 18.4000 -60.7000 45 hurdat_atl main 517 496 O_____________ hurdat_atl AL031913 18.4000 -60.7000 TS 45 0 8 329
1913239N13339 1913 40 NA NA NOT_NAMED 1913-09-04 03:00:00 TS 18.7500 -60.9151 main 496 478 P_____________ AL031913 18.7500 -60.9151 TS 45 0 8 332
1913239N13339 1913 40 NA NA NOT_NAMED 1913-09-04 06:00:00 TS 19.1000 -61.1000 45 hurdat_atl main 480 465 O_____________ hurdat_atl AL031913 19.1000 -61.1000 TS 45 0 8 335
1913239N13339 1913 40 NA NA NOT_NAMED 1913-09-04 09:00:00 TS 19.4425 -61.2651 main 465 464 P_____________ AL031913 19.4425 -61.2651 TS 45 0 8 338
1913239N13339 1913 40 NA NA NOT_NAMED 1913-09-04 12:00:00 TS 19.8000 -61.4000 45 hurdat_atl main 468 466 O_____________ hurdat_atl AL031913 19.8000 -61.4000 TS 45 0 8 343
1913239N13339 1913 40 NA NA NOT_NAMED 1913-09-04 15:00:00 TS 20.1925 -61.5076 main 475 475 P_____________ AL031913 20.1925 -61.5076 TS 45 0 8 347
1913239N13339 1913 40 NA NA NOT_NAMED 1913-09-04 18:00:00 TS 20.6000 -61.6000 45 hurdat_atl main 486 486 O_____________ hurdat_atl AL031913 20.6000 -61.6000 TS 45 0 8 347
1913239N13339 1913 40 NA NA NOT_NAMED 1913-09-04 21:00:00 TS 21.0000 -61.7075 main 501 501 P_____________ AL031913 21.0000 -61.7075 TS 45 0 8 347
1913239N13339 1913 40 NA NA NOT_NAMED 1913-09-05 00:00:00 TS 21.4000 -61.8000 45 hurdat_atl main 519 519 O_____________ hurdat_atl AL031913 21.4000 -61.8000 TS 45 0 8 351
1913239N13339 1913 40 NA NA NOT_NAMED 1913-09-05 03:00:00 TS 21.7999 -61.8353 main 549 549 P_____________ AL031913 21.7999 -61.8353 TS 45 0 8 353
1913239N13339 1913 40 NA NA NOT_NAMED 1913-09-05 06:00:00 TS 22.2000 -61.9000 45 hurdat_atl main 573 573 O_____________ hurdat_atl AL031913 22.2000 -61.9000 TS 45 0 8 343
1913239N13339 1913 40 NA NA NOT_NAMED 1913-09-05 09:00:00 TS 22.5926 -62.0997 main 594 594 P_____________ AL031913 22.5926 -62.0997 TS 45 0 9 335
1913239N13339 1913 40 NA NA NOT_NAMED 1913-09-05 12:00:00 TS 23.0000 -62.3000 45 hurdat_atl main 618 618 O_____________ hurdat_atl AL031913 23.0000 -62.3000 TS 45 0 9 344
1913239N13339 1913 40 NA NA NOT_NAMED 1913-09-05 15:00:00 TS 23.4349 -62.3579 main 650 650 P_____________ AL031913 23.4349 -62.3579 TS 45 0 9 355
1913239N13339 1913 40 NA NA NOT_NAMED 1913-09-05 18:00:00 TS 23.9000 -62.4000 45 hurdat_atl main 698 698 O_____________ hurdat_atl AL031913 23.9000 -62.4000 TS 45 0 10 349
1913239N13339 1913 40 NA NA NOT_NAMED 1913-09-05 21:00:00 TS 24.3851 -62.5572 main 739 739 P_____________ AL031913 24.3851 -62.5572 TS 45 0 10 345
1913239N13339 1913 40 NA NA NOT_NAMED 1913-09-06 00:00:00 TS 24.9000 -62.7000 45 hurdat_atl main 786 786 O_____________ hurdat_atl AL031913 24.9000 -62.7000 TS 45 0 11 350
1913239N13339 1913 40 NA NA NOT_NAMED 1913-09-06 03:00:00 TS 25.4424 -62.7671 main 834 834 P_____________ AL031913 25.4424 -62.7671 TS 45 0 11 0
1913239N13339 1913 40 NA NA NOT_NAMED 1913-09-06 06:00:00 TS 26.0000 -62.7000 45 hurdat_atl main 900 900 O_____________ hurdat_atl AL031913 26.0000 -62.7000 TS 45 0 11 11
1913239N13339 1913 40 NA NA NOT_NAMED 1913-09-06 09:00:00 TS 26.5494 -62.5192 main 959 959 P_____________ AL031913 26.5494 -62.5192 TS 47 0 12 26
1913239N13339 1913 40 NA NA NOT_NAMED 1913-09-06 12:00:00 TS 27.1000 -62.1000 50 hurdat_atl main 1036 1036 O_____________ hurdat_atl AL031913 27.1000 -62.1000 TS 50 0 15 42
1913239N13339 1913 40 NA NA NOT_NAMED 1913-09-06 15:00:00 TS 27.6575 -61.4050 main 1124 1124 P_____________ AL031913 27.6575 -61.4050 TS 50 0 18 52
1913239N13339 1913 40 NA NA NOT_NAMED 1913-09-06 18:00:00 TS 28.2000 -60.5000 50 hurdat_atl main 1212 1212 O_____________ hurdat_atl AL031913 28.2000 -60.5000 TS 50 0 20 57
1913239N13339 1913 40 NA NA NOT_NAMED 1913-09-06 21:00:00 TS 28.7219 -59.5519 main 1302 1302 P_____________ AL031913 28.7219 -59.5519 TS 50 0 20 60
1913239N13339 1913 40 NA NA NOT_NAMED 1913-09-07 00:00:00 TS 29.2000 -58.5000 50 hurdat_atl main 1405 1405 O_____________ hurdat_atl AL031913 29.2000 -58.5000 TS 50 0 21 65
1913239N13339 1913 40 NA NA NOT_NAMED 1913-09-07 03:00:00 TS 29.6297 -57.3645 main 1501 1501 P_____________ AL031913 29.6297 -57.3645 TS 50 0 22 68
1913239N13339 1913 40 NA NA NOT_NAMED 1913-09-07 06:00:00 TS 30.0000 -56.2000 50 hurdat_atl main 1607 1607 O_____________ hurdat_atl AL031913 30.0000 -56.2000 TS 50 0 21 70
1913239N13339 1913 40 NA NA NOT_NAMED 1913-09-07 09:00:00 TS 30.3439 -55.0923 main 1700 1700 P_____________ AL031913 30.3439 -55.0923 TS 52 0 20 72
1913239N13339 1913 40 NA NA NOT_NAMED 1913-09-07 12:00:00 TS 30.6000 -54.0000 55 hurdat_atl main 1738 1738 O_____________ hurdat_atl AL031913 30.6000 -54.0000 TS 55 0 19 78
1913239N13339 1913 40 NA NA NOT_NAMED 1913-09-07 15:00:00 TS 30.7291 -52.8988 main 1764 1759 P_____________ AL031913 30.7291 -52.8988 TS 55 0 19 84
1913239N13339 1913 40 NA NA NOT_NAMED 1913-09-07 18:00:00 TS 30.8000 -51.8000 55 hurdat_atl main 1763 1755 O_____________ hurdat_atl AL031913 30.8000 -51.8000 TS 55 0 19 84
1913239N13339 1913 40 NA NA NOT_NAMED 1913-09-07 21:00:00 TS 30.9141 -50.7003 main 1760 1754 P_____________ AL031913 30.9141 -50.7003 TS 55 0 19 84
1913239N13339 1913 40 NA NA NOT_NAMED 1913-09-08 00:00:00 TS 31.0000 -49.6000 55 hurdat_atl main 1763 1763 O_____________ hurdat_atl AL031913 31.0000 -49.6000 TS 55 0 19 87
1913239N13339 1913 40 NA NA NOT_NAMED 1913-09-08 03:00:00 TS 31.0079 -48.4394 main 1784 1784 P_____________ AL031913 31.0079 -48.4394 TS 57 0 19 90
1913239N13339 1913 40 NA NA NOT_NAMED 1913-09-08 06:00:00 TS 31.0000 -47.4000 60 hurdat_atl main 1806 1806 O_____________ hurdat_atl AL031913 31.0000 -47.4000 TS 60 0 16 90
1913239N13339 1913 40 NA NA NOT_NAMED 1913-09-08 09:00:00 TS 31.0192 -46.5800 main 1826 1826 P_____________ AL031913 31.0192 -46.5800 TS 60 0 12 85
1913239N13339 1913 40 NA NA NOT_NAMED 1913-09-08 12:00:00 TS 31.1000 -46.0000 60 hurdat_atl main 1832 1827 O_____________ hurdat_atl AL031913 31.1000 -46.0000 TS 60 0 9 75
1913239N13339 1913 40 NA NA NOT_NAMED 1913-09-08 15:00:00 TS 31.2470 -45.6026 main 1833 1807 P_____________ AL031913 31.2470 -45.6026 TS 60 0 7 52
1913239N13339 1913 40 NA NA NOT_NAMED 1913-09-08 18:00:00 TS 31.5000 -45.4000 60 hurdat_atl main 1807 1779 O_____________ hurdat_atl AL031913 31.5000 -45.4000 TS 60 0 7 23
1913239N13339 1913 40 NA NA NOT_NAMED 1913-09-08 21:00:00 TS 31.8699 -45.2974 main 1769 1727 P_____________ AL031913 31.8699 -45.2974 TS 60 0 8 6
1913239N13339 1913 40 NA NA NOT_NAMED 1913-09-09 00:00:00 TS 32.3000 -45.3000 60 hurdat_atl main 1727 1685 O_____________ hurdat_atl AL031913 32.3000 -45.3000 TS 60 0 8 0
1913239N13339 1913 40 NA NA NOT_NAMED 1913-09-09 03:00:00 TS 32.6999 -45.3053 main 1685 1640 P_____________ AL031913 32.6999 -45.3053 TS 60 0 8 354
1913239N13339 1913 40 NA NA NOT_NAMED 1913-09-09 06:00:00 TS 33.1000 -45.4000 60 hurdat_atl main 1640 1592 O_____________ hurdat_atl AL031913 33.1000 -45.4000 TS 60 0 9 342
1913239N13339 1913 40 NA NA NOT_NAMED 1913-09-09 09:00:00 TS 33.5226 -45.6196 main 1592 1540 P_____________ AL031913 33.5226 -45.6196 TS 60 0 9 332
1913239N13339 1913 40 NA NA NOT_NAMED 1913-09-09 12:00:00 TS 33.9000 -45.9000 60 hurdat_atl main 1540 1502 O_____________ hurdat_atl AL031913 33.9000 -45.9000 TS 60 0 8 326
1913239N13339 1913 40 NA NA NOT_NAMED 1913-09-09 15:00:00 TS 34.1724 -46.1503 main 1499 1472 P_____________ AL031913 34.1724 -46.1503 TS 60 0 6 320
1913239N13339 1913 40 NA NA NOT_NAMED 1913-09-09 18:00:00 TS 34.4000 -46.4000 60 hurdat_atl main 1472 1444 O_____________ hurdat_atl AL031913 34.4000 -46.4000 TS 60 0 6 320
1913239N13339 1913 40 NA NA NOT_NAMED 1913-09-09 21:00:00 TS 34.6574 -46.6426 main 1434 1404 P_____________ AL031913 34.6574 -46.6426 TS 60 0 6 321
1913239N13339 1913 40 NA NA NOT_NAMED 1913-09-10 00:00:00 TS 34.9000 -46.9000 60 hurdat_atl main 1404 1373 O_____________ hurdat_atl AL031913 34.9000 -46.9000 TS 60 0 6 315
1913239N13339 1913 40 NA NA NOT_NAMED 1913-09-10 03:00:00 TS 35.0999 -47.1853 main 1373 1343 P_____________ AL031913 35.0999 -47.1853 TS 60 0 6 309
1913239N13339 1913 40 NA NA NOT_NAMED 1913-09-10 06:00:00 TS 35.3000 -47.5000 60 hurdat_atl main 1343 1314 O_____________ hurdat_atl AL031913 35.3000 -47.5000 TS 60 0 7 309
1913239N13339 1913 40 NA NA NOT_NAMED 1913-09-10 09:00:00 TS 35.5350 -47.8501 main 1311 1271 P_____________ AL031913 35.5350 -47.8501 TS 60 0 8 311
1913239N13339 1913 40 NA NA NOT_NAMED 1913-09-10 12:00:00 TS 35.8000 -48.2000 60 hurdat_atl main 1271 1231 O_____________ hurdat_atl AL031913 35.8000 -48.2000 TS 60 0 8 316
1913239N13339 1913 40 NA NA NOT_NAMED 1913-09-10 15:00:00 TS 36.0849 -48.5152 main 1231 1191 P_____________ AL031913 36.0849 -48.5152 TS 57 0 8 321
1913239N13339 1913 40 NA NA NOT_NAMED 1913-09-10 18:00:00 TS 36.4000 -48.8000 55 hurdat_atl main 1191 1154 O_____________ hurdat_atl AL031913 36.4000 -48.8000 TS 55 0 8 326
1913239N13339 1913 40 NA NA NOT_NAMED 1913-09-10 21:00:00 TS 36.7424 -49.0577 main 1151 1104 P_____________ AL031913 36.7424 -49.0577 TS 55 0 8 330
1913239N13339 1913 40 NA NA NOT_NAMED 1913-09-11 00:00:00 TS 37.1000 -49.3000 55 hurdat_atl main 1104 1065 O_____________ hurdat_atl AL031913 37.1000 -49.3000 TS 55 0 8 330
1913239N13339 1913 40 NA NA NOT_NAMED 1913-09-11 03:00:00 TS 37.4501 -49.5724 main 1054 1017 P_____________ AL031913 37.4501 -49.5724 TS 55 0 8 330
1913239N13339 1913 40 NA NA NOT_NAMED 1913-09-11 06:00:00 TS 37.8000 -49.8000 55 hurdat_atl main 1017 982 O_____________ hurdat_atl AL031913 37.8000 -49.8000 TS 55 0 7 337
1913239N13339 1913 40 NA NA NOT_NAMED 1913-09-11 09:00:00 TS 38.1349 -49.9377 main 982 937 P_____________ AL031913 38.1349 -49.9377 TS 55 0 7 347
1913239N13339 1913 40 NA NA NOT_NAMED 1913-09-11 12:00:00 TS 38.5000 -50.0000 55 hurdat_atl main 937 894 O_____________ hurdat_atl AL031913 38.5000 -50.0000 TS 55 0 8 356
1913239N13339 1913 40 NA NA NOT_NAMED 1913-09-11 15:00:00 TS 38.9275 -50.0152 main 894 841 P_____________ AL031913 38.9275 -50.0152 TS 52 0 9 0
1913239N13339 1913 40 NA NA NOT_NAMED 1913-09-11 18:00:00 TS 39.4000 -50.0000 50 hurdat_atl main 841 798 O_____________ hurdat_atl AL031913 39.4000 -50.0000 TS 50 0 10 2
1913239N13339 1913 40 NA NA NOT_NAMED 1913-09-11 21:00:00 TS 39.8775 -50.0000 main 788 735 P_____________ AL031913 39.8775 -50.0000 TS 47 0 10 1
1913239N13339 1913 40 NA NA NOT_NAMED 1913-09-12 00:00:00 TS 40.4000 -50.0000 45 hurdat_atl main 735 683 O_____________ hurdat_atl AL031913 40.4000 -50.0000 TS 45 0 11 0
1913239N13339 1913 40 NA NA NOT_NAMED 1913-09-12 03:00:00 TS 40.9700 -50.0000 main 672 611 P_____________ AL031913 40.9700 -50.0000 TS 42 0 12 1
1913239N13339 1913 40 NA NA NOT_NAMED 1913-09-12 06:00:00 TS 41.6000 -50.0000 40 hurdat_atl main 611 550 O_____________ hurdat_atl AL031913 41.6000 -50.0000 TS 40 0 13 0
1913239N13339 1913 40 NA NA NOT_NAMED 1913-09-12 09:00:00 TS 42.2775 -50.0000 main 540 472 P_____________ AL031913 42.2775 -50.0000 TS 37 0 14 0
1913239N13339 1913 40 NA NA NOT_NAMED 1913-09-12 12:00:00 ET 43.0000 -50.0000 35 hurdat_atl main 472 407 O_____________ hurdat_atl AL031913 43.0000 -50.0000 EX 35 -4 15 1
1913239N13339 1913 40 NA NA NOT_NAMED 1913-09-12 15:00:00 ET 43.7450 -50.0000 main 407 340 P_____________ AL031913 43.7450 -50.0000 EX 32 -4 15 0
1913239N13339 1913 40 NA NA NOT_NAMED 1913-09-12 18:00:00 ET 44.5000 -50.0000 30 hurdat_atl main 340 O_____________ hurdat_atl AL031913 44.5000 -50.0000 EX 30 -4 15 0

About IBTrACS Database

This database is a web-friendly format of International Best Track Archive for Climate Stewardship (IBTrACS), a global best track data archive curated by NOAA dating back to 1842.

Updated: 2021-11-26